METAR AND TAF INFORMATION
METAR FOR YGTE
ADDS - METARS form results

(1733 UTC 21 March 2019)
Data provider http://aviationweather.gov/metar/data/
 
METAR text: YGTE 211700Z AUTO 00000KT 9999 // NCD 25/24 Q1004
Conditions at: YGTE (GROOTE EYLANDT , AU) observed 1700 UTC 21 March 2019
Temperature: 25.0°C (77°F)
Dewpoint: 24.0°C (75°F) [RH = 94%]
Pressure (altimeter): 29.65 inches Hg (1004.0 mb)
Winds: calm
Visibility: 6 or more miles (10+ km)
Ceiling: at least 12,000 feet AGL
Clouds: sky clear below 12,000 feet AGL
Weather: no significant weather observed at this time

 AIRPORT MAP

 RUNWAY INFORMATION
Runway 10 Runway length 6237 ft Runway width 98 ft
Runway elevation 30 ft Runway displaced threshold 0 ft Runway heading 100
Runway 28 Runway length 6237 ft Runway width 98 ft
Runway elevation 51 ft Runway displaced threshold 0 ft Runway heading 280

 AIRPORT FREQUENCIES
Type CTAF Name CTAF Frequency 126 MHZ
Type FSS Name BRISBANE C Frequency 122.2 MHZ

 AIRPORT NEAR NAVIGATION AIDS
Type NDB-DME Name Groote Eylandt Frequency 407 KHZ



Powered by Virtual Airlines Manager [v2.6.2]